Time;durP1;ratioP1;P1;durP2;ratioP2;P2;SDS_P1;SDS_P2;PMS_P1;PMS_P2;Temp;Humidity;BMP_temperature;BMP_pressure;BME280_temperature;BME280_humidity;BME280_pressure;Samples;Min_cycle;Max_cycle;Signal;HPM_P1;HPM_P2
2022/07/26 00:01:28;;;;;;;45.38;16.48;;;;;;;;;;4219472;33;20120;-69
2022/07/26 00:03:54;;;;;;;42.75;16.20;;;;;;;;;;4232218;33;20203;-69
2022/07/26 00:34:47;;;;;;;42.28;17.58;;;;;;;;;;4508522;28;20126;-61
2022/07/26 00:37:13;;;;;;;32.53;15.23;;;;;;;;;;4245841;33;20116;-64
2022/07/26 00:39:39;;;;;;;28.55;12.73;;;;;;;;;;4245998;33;20113;-71
2022/07/26 00:42:05;;;;;;;23.38;12.37;;;;;;;;;;4246202;33;20468;-70
2022/07/26 00:44:39;;;;;;;21.20;11.38;;;;;;;;;;4245182;33;20208;-63
2022/07/26 00:47:05;;;;;;;16.70;10.65;;;;;;;;;;4232757;33;20148;-70
2022/07/26 00:49:31;;;;;;;19.45;11.05;;;;;;;;;;4232668;33;20101;-68
2022/07/26 00:51:57;;;;;;;18.70;9.95;;;;;;;;;;4245783;33;20528;-68
2022/07/26 00:54:23;;;;;;;17.20;11.10;;;;;;;;;;4232778;33;20120;-68
2022/07/26 00:56:49;;;;;;;15.25;9.75;;;;;;;;;;4245849;33;20124;-68
2022/07/26 00:59:15;;;;;;;18.73;10.77;;;;;;;;;;4245725;33;20441;-63
2022/07/26 01:01:41;;;;;;;15.60;10.80;;;;;;;;;;4245856;33;20112;-63
2022/07/26 01:04:07;;;;;;;15.40;10.38;;;;;;;;;;4245501;33;20124;-63
2022/07/26 01:06:33;;;;;;;21.17;12.77;;;;;;;;;;4232269;33;20156;-61
2022/07/26 01:08:59;;;;;;;22.80;11.15;;;;;;;;;;4232551;33;20187;-62
2022/07/26 01:11:25;;;;;;;17.98;11.00;;;;;;;;;;4232579;33;20553;-61
2022/07/26 01:13:51;;;;;;;22.77;11.52;;;;;;;;;;4245506;33;20116;-61
2022/07/26 01:16:17;;;;;;;18.60;12.07;;;;;;;;;;4245439;33;20473;-61
2022/07/26 01:18:44;;;;;;;22.35;10.60;;;;;;;;;;4246894;33;20109;-62
2022/07/26 01:21:10;;;;;;;21.05;11.55;;;;;;;;;;4247667;33;20548;-63
2022/07/26 01:23:37;;;;;;;16.73;11.52;;;;;;;;;;4234760;33;20449;-63
2022/07/26 01:26:03;;;;;;;33.13;11.77;;;;;;;;;;4246227;33;20116;-62
2022/07/26 01:28:29;;;;;;;33.03;16.52;;;;;;;;;;4247707;33;20212;-62
2022/07/26 01:30:55;;;;;;;31.33;14.15;;;;;;;;;;4247922;33;20111;-63
2022/07/26 01:33:21;;;;;;;22.25;13.35;;;;;;;;;;4247684;33;20496;-62
2022/07/26 01:35:47;;;;;;;27.08;13.25;;;;;;;;;;4247406;33;20505;-63
2022/07/26 01:38:13;;;;;;;27.73;13.45;;;;;;;;;;4247570;33;20127;-64
2022/07/26 01:40:39;;;;;;;30.08;13.73;;;;;;;;;;4234632;33;20556;-63
2022/07/26 01:43:05;;;;;;;31.67;14.05;;;;;;;;;;4234797;33;20211;-64
2022/07/26 01:45:31;;;;;;;29.55;14.27;;;;;;;;;;4247482;33;20196;-64
2022/07/26 01:47:57;;;;;;;24.98;13.77;;;;;;;;;;4247811;33;20112;-70
2022/07/26 01:50:23;;;;;;;29.12;14.68;;;;;;;;;;4234268;33;20521;-69
2022/07/26 01:52:49;;;;;;;27.45;13.93;;;;;;;;;;4247432;33;20104;-71
2022/07/26 01:55:16;;;;;;;27.42;14.25;;;;;;;;;;4247344;33;20120;-70
2022/07/26 01:57:44;;;;;;;25.90;14.68;;;;;;;;;;4234530;33;20585;-70
2022/07/26 02:00:11;;;;;;;29.20;13.93;;;;;;;;;;4247520;33;20128;-70
2022/07/26 02:02:37;;;;;;;31.15;15.10;;;;;;;;;;4247371;33;20123;-69
2022/07/26 02:05:04;;;;;;;28.05;15.13;;;;;;;;;;4247116;33;20113;-68
2022/07/26 02:07:40;;;;;;;33.75;15.68;;;;;;;;;;4234170;33;20097;-70
2022/07/26 02:10:07;;;;;;;34.90;16.60;;;;;;;;;;4247121;33;20509;-71
2022/07/26 02:12:33;;;;;;;31.00;15.05;;;;;;;;;;4247518;33;20115;-71
2022/07/26 02:14:59;;;;;;;31.60;16.25;;;;;;;;;;4247083;33;20117;-71
2022/07/26 02:17:25;;;;;;;31.67;15.43;;;;;;;;;;4247537;33;20125;-71
2022/07/26 02:19:51;;;;;;;37.63;16.02;;;;;;;;;;4234015;33;20115;-71
2022/07/26 02:22:18;;;;;;;31.90;14.20;;;;;;;;;;4247573;33;20132;-70
2022/07/26 02:24:46;;;;;;;31.30;13.90;;;;;;;;;;4234469;33;20128;-71
2022/07/26 02:27:11;;;;;;;30.10;15.40;;;;;;;;;;4234055;33;20115;-70
2022/07/26 02:29:38;;;;;;;39.58;15.68;;;;;;;;;;4246515;33;20544;-71
2022/07/26 02:32:04;;;;;;;32.65;16.75;;;;;;;;;;4247125;33;20187;-70
2022/07/26 02:34:30;;;;;;;31.87;15.70;;;;;;;;;;4247278;33;20117;-70
2022/07/26 02:36:56;;;;;;;42.58;16.60;;;;;;;;;;4247251;33;20089;-70
2022/07/26 02:39:28;;;;;;;34.88;17.87;;;;;;;;;;4247023;33;20093;-71
2022/07/26 02:41:58;;;;;;;43.85;18.80;;;;;;;;;;4247097;33;20089;-71
2022/07/26 02:44:25;;;;;;;36.38;19.42;;;;;;;;;;4247160;33;20496;-70
2022/07/26 02:46:52;;;;;;;33.83;17.05;;;;;;;;;;4247041;33;20223;-70
2022/07/26 02:49:18;;;;;;;29.85;16.80;;;;;;;;;;4233778;33;20136;-70
2022/07/26 02:51:44;;;;;;;32.15;15.75;;;;;;;;;;4247020;33;20120;-70
2022/07/26 02:54:10;;;;;;;29.42;16.17;;;;;;;;;;4247291;33;20476;-70
2022/07/26 02:56:36;;;;;;;24.55;14.87;;;;;;;;;;4247141;33;20116;-71
2022/07/26 02:59:02;;;;;;;27.55;15.32;;;;;;;;;;4247361;33;20109;-71
2022/07/26 03:01:28;;;;;;;27.60;15.38;;;;;;;;;;4247182;33;20529;-70
2022/07/26 03:03:54;;;;;;;28.65;15.70;;;;;;;;;;4246863;33;20124;-71
2022/07/26 03:06:20;;;;;;;24.27;13.32;;;;;;;;;;4247030;33;20111;-70
2022/07/26 03:08:47;;;;;;;36.65;15.27;;;;;;;;;;4246947;33;20365;-70
2022/07/26 03:11:13;;;;;;;39.08;15.35;;;;;;;;;;4233623;33;20139;-71
2022/07/26 03:13:39;;;;;;;39.88;17.02;;;;;;;;;;4221904;33;20166;-70
2022/07/26 03:16:06;;;;;;;33.65;15.10;;;;;;;;;;4246704;33;20117;-70
2022/07/26 03:18:32;;;;;;;36.20;14.87;;;;;;;;;;4246679;33;20113;-70
2022/07/26 03:20:58;;;;;;;31.45;14.95;;;;;;;;;;4246731;33;20120;-71
2022/07/26 03:23:24;;;;;;;41.75;16.30;;;;;;;;;;4246691;33;20124;-70
2022/07/26 03:25:50;;;;;;;41.42;17.40;;;;;;;;;;4246913;33;20284;-70
2022/07/26 03:28:16;;;;;;;39.67;16.42;;;;;;;;;;4246544;33;20121;-72
2022/07/26 03:30:42;;;;;;;50.22;18.70;;;;;;;;;;4220728;33;20184;-70
2022/07/26 03:33:08;;;;;;;39.85;16.80;;;;;;;;;;4246640;33;20529;-71
2022/07/26 03:35:34;;;;;;;48.95;17.08;;;;;;;;;;4246782;33;20191;-75
2022/07/26 03:38:00;;;;;;;40.80;17.12;;;;;;;;;;4232843;33;20456;-70
2022/07/26 03:40:27;;;;;;;43.25;16.73;;;;;;;;;;4246365;33;20580;-70
2022/07/26 03:42:54;;;;;;;44.63;15.25;;;;;;;;;;4246489;33;20583;-70
2022/07/26 03:45:20;;;;;;;43.80;18.35;;;;;;;;;;4233303;33;20488;-70
2022/07/26 03:47:46;;;;;;;47.50;16.52;;;;;;;;;;4246496;33;20502;-70
2022/07/26 03:50:12;;;;;;;44.15;18.00;;;;;;;;;;4246536;33;20112;-70
2022/07/26 03:52:38;;;;;;;45.97;16.42;;;;;;;;;;4244946;33;20101;-73
2022/07/26 03:57:50;;;;;;;25.80;13.25;;;;;;;;;;4233368;33;20116;-69
2022/07/26 04:00:17;;;;;;;30.08;12.73;;;;;;;;;;4232977;33;20127;-69
2022/07/26 04:02:43;;;;;;;23.42;9.90;;;;;;;;;;4233080;33;20137;-68
2022/07/26 04:05:09;;;;;;;23.42;7.57;;;;;;;;;;4233310;33;20131;-69
2022/07/26 04:07:45;;;;;;;12.68;6.25;;;;;;;;;;4233338;33;20492;-69
2022/07/26 04:10:11;;;;;;;10.40;7.12;;;;;;;;;;4233314;33;20234;-73
2022/07/26 04:12:38;;;;;;;16.62;5.93;;;;;;;;;;4232737;33;20108;-77
2022/07/26 04:15:05;;;;;;;9.05;6.53;;;;;;;;;;4220416;33;20520;-70
2022/07/26 04:17:38;;;;;;;8.73;5.93;;;;;;;;;;4246185;33;20472;-67
2022/07/26 04:20:06;;;;;;;11.38;6.35;;;;;;;;;;4246020;33;20508;-68
2022/07/26 04:22:35;;;;;;;8.68;6.82;;;;;;;;;;4246173;33;20100;-69
2022/07/26 04:25:02;;;;;;;12.02;7.45;;;;;;;;;;4244775;33;20528;-71
2022/07/26 04:27:28;;;;;;;14.82;7.60;;;;;;;;;;4231917;33;20445;-67
2022/07/26 04:29:54;;;;;;;11.27;7.32;;;;;;;;;;4244410;33;20136;-71
2022/07/26 04:32:20;;;;;;;13.00;8.10;;;;;;;;;;4243638;33;20133;-73
2022/07/26 04:34:46;;;;;;;11.48;7.75;;;;;;;;;;4245015;33;20136;-74
2022/07/26 04:37:12;;;;;;;15.80;9.35;;;;;;;;;;4231715;33;20101;-72
2022/07/26 04:39:38;;;;;;;11.73;9.43;;;;;;;;;;4245461;33;20102;-75
2022/07/26 04:42:04;;;;;;;16.52;10.85;;;;;;;;;;4246200;33;20089;-69
2022/07/26 04:44:30;;;;;;;18.10;10.75;;;;;;;;;;4245907;33;20211;-72
2022/07/26 04:46:56;;;;;;;16.60;10.73;;;;;;;;;;4232743;33;20117;-73
2022/07/26 04:49:22;;;;;;;19.62;10.73;;;;;;;;;;4246176;33;20471;-68
2022/07/26 04:51:48;;;;;;;19.48;10.55;;;;;;;;;;4232543;33;20135;-68
2022/07/26 04:54:19;;;;;;;26.42;12.05;;;;;;;;;;4247897;33;20120;-69
2022/07/26 04:56:46;;;;;;;20.75;11.50;;;;;;;;;;4235015;33;20136;-69
2022/07/26 04:59:12;;;;;;;20.02;11.02;;;;;;;;;;4248081;33;20480;-68
2022/07/26 05:01:38;;;;;;;22.50;11.85;;;;;;;;;;4247877;33;20188;-68
2022/07/26 05:04:04;;;;;;;42.53;13.48;;;;;;;;;;4247827;33;20480;-69
2022/07/26 05:06:33;;;;;;;33.45;13.60;;;;;;;;;;4247914;33;20787;-69
2022/07/26 05:09:00;;;;;;;57.78;17.77;;;;;;;;;;4248202;33;20108;-72
2022/07/26 05:11:26;;;;;;;45.58;16.25;;;;;;;;;;4234914;33;20105;-69
2022/07/26 05:13:52;;;;;;;40.83;16.12;;;;;;;;;;4234598;33;20105;-71
2022/07/26 05:16:18;;;;;;;46.28;16.55;;;;;;;;;;4248048;33;20436;-70
2022/07/26 05:18:44;;;;;;;41.72;15.00;;;;;;;;;;4247913;33;20112;-69
2022/07/26 05:21:10;;;;;;;49.80;18.87;;;;;;;;;;4247836;33;20105;-67
2022/07/26 05:23:36;;;;;;;41.28;16.75;;;;;;;;;;4248137;33;20104;-71
2022/07/26 05:26:02;;;;;;;46.10;17.50;;;;;;;;;;4247745;33;20109;-69
2022/07/26 05:28:28;;;;;;;34.80;12.65;;;;;;;;;;4234357;33;20124;-69
2022/07/26 05:30:54;;;;;;;24.85;12.00;;;;;;;;;;4247720;33;20111;-70
2022/07/26 05:33:20;;;;;;;38.03;14.52;;;;;;;;;;4247715;33;20529;-69
2022/07/26 05:35:46;;;;;;;33.50;13.70;;;;;;;;;;4234477;33;20121;-71
2022/07/26 05:38:12;;;;;;;25.98;11.80;;;;;;;;;;4234223;33;20828;-69
2022/07/26 05:40:38;;;;;;;24.70;12.63;;;;;;;;;;4234517;33;20093;-70
2022/07/26 05:43:04;;;;;;;28.17;11.55;;;;;;;;;;4234736;33;20097;-70
2022/07/26 05:45:30;;;;;;;23.70;11.50;;;;;;;;;;4234380;33;20190;-70
2022/07/26 05:47:56;;;;;;;22.13;11.75;;;;;;;;;;4234401;33;20136;-73
2022/07/26 05:50:22;;;;;;;23.17;12.50;;;;;;;;;;4247517;33;20195;-70
2022/07/26 05:52:48;;;;;;;19.30;10.80;;;;;;;;;;4247621;33;20097;-72
2022/07/26 05:55:14;;;;;;;30.10;13.13;;;;;;;;;;4234437;33;20464;-74
2022/07/26 05:57:41;;;;;;;19.23;12.65;;;;;;;;;;4234312;33;20460;-70
2022/07/26 06:00:08;;;;;;;24.95;13.80;;;;;;;;;;4247490;33;20100;-72
2022/07/26 06:02:34;;;;;;;19.17;13.00;;;;;;;;;;4247334;33;20227;-73
2022/07/26 06:05:00;;;;;;;26.80;14.40;;;;;;;;;;4246687;33;20098;-70
2022/07/26 06:07:26;;;;;;;23.02;12.70;;;;;;;;;;4247302;33;20131;-70
2022/07/26 06:09:52;;;;;;;12.50;10.15;;;;;;;;;;4234122;33;20119;-70
2022/07/26 06:12:18;;;;;;;18.15;10.10;;;;;;;;;;4234433;33;20113;-71
2022/07/26 06:14:44;;;;;;;15.88;8.73;;;;;;;;;;4234356;33;20132;-72
2022/07/26 06:17:10;;;;;;;13.13;9.18;;;;;;;;;;4247460;33;20499;-73
2022/07/26 06:19:36;;;;;;;11.45;7.75;;;;;;;;;;4234192;33;20117;-71
2022/07/26 06:22:03;;;;;;;11.95;9.48;;;;;;;;;;4245780;33;20647;-71
2022/07/26 06:24:29;;;;;;;17.00;9.10;;;;;;;;;;4247678;33;20105;-71
2022/07/26 06:26:56;;;;;;;15.50;9.48;;;;;;;;;;4247202;33;20171;-70
2022/07/26 06:29:22;;;;;;;8.30;6.93;;;;;;;;;;4234345;33;20136;-69
2022/07/26 06:31:49;;;;;;;11.90;9.02;;;;;;;;;;4233937;33;20108;-70
2022/07/26 06:34:15;;;;;;;9.80;8.23;;;;;;;;;;4247148;33;20112;-71
2022/07/26 06:36:41;;;;;;;10.70;7.93;;;;;;;;;;4234227;33;20199;-71
2022/07/26 06:39:08;;;;;;;8.50;6.87;;;;;;;;;;4247167;33;20192;-70
2022/07/26 06:41:34;;;;;;;9.82;6.87;;;;;;;;;;4247177;33;20440;-67
2022/07/26 06:44:00;;;;;;;5.70;5.20;;;;;;;;;;4247288;33;20433;-67
2022/07/26 06:46:26;;;;;;;8.82;5.57;;;;;;;;;;4247139;33;20464;-67
2022/07/26 06:48:54;;;;;;;6.15;5.28;;;;;;;;;;4234134;33;20104;-66
2022/07/26 06:51:21;;;;;;;6.20;5.18;;;;;;;;;;4247037;33;20125;-66
2022/07/26 06:53:47;;;;;;;5.70;4.82;;;;;;;;;;4247007;33;20111;-65
2022/07/26 06:56:13;;;;;;;10.35;4.87;;;;;;;;;;4247001;33;20097;-65
2022/07/26 06:58:41;;;;;;;4.57;3.75;;;;;;;;;;4257325;33;20514;-65
2022/07/26 07:01:07;;;;;;;5.47;3.90;;;;;;;;;;4257365;33;20211;-68
2022/07/26 07:03:33;;;;;;;3.87;3.42;;;;;;;;;;4247004;33;20513;-68
2022/07/26 07:05:59;;;;;;;4.53;3.80;;;;;;;;;;4246990;33;20111;-68
2022/07/26 07:08:25;;;;;;;4.78;3.33;;;;;;;;;;4233754;33;20152;-69
2022/07/26 07:10:51;;;;;;;7.28;4.22;;;;;;;;;;4246930;33;20612;-69
2022/07/26 07:13:18;;;;;;;3.72;3.17;;;;;;;;;;4233813;33;20125;-69
2022/07/26 07:15:44;;;;;;;4.87;3.53;;;;;;;;;;4246589;33;20119;-69
2022/07/26 07:18:10;;;;;;;6.72;3.97;;;;;;;;;;4246953;33;20109;-68
2022/07/26 07:20:38;;;;;;;3.72;3.33;;;;;;;;;;4247021;33;20112;-69
2022/07/26 07:23:04;;;;;;;4.03;3.20;;;;;;;;;;4246858;33;20519;-69
2022/07/26 07:25:30;;;;;;;4.10;3.70;;;;;;;;;;4246695;33;20124;-68
2022/07/26 07:27:56;;;;;;;5.62;3.60;;;;;;;;;;4246961;33;20125;-70
2022/07/26 07:30:22;;;;;;;3.87;3.40;;;;;;;;;;4221877;33;20144;-69
2022/07/26 07:32:48;;;;;;;6.70;3.60;;;;;;;;;;4246990;33;20108;-69
2022/07/26 07:35:14;;;;;;;5.80;3.58;;;;;;;;;;4246664;33;20126;-68
2022/07/26 07:37:41;;;;;;;4.32;3.80;;;;;;;;;;4221920;33;20109;-68
2022/07/26 07:40:08;;;;;;;4.30;3.65;;;;;;;;;;4246921;33;20109;-68
2022/07/26 07:42:34;;;;;;;3.97;3.30;;;;;;;;;;4246793;33;20434;-69
2022/07/26 07:45:01;;;;;;;3.85;3.33;;;;;;;;;;4246651;33;20105;-69
2022/07/26 07:47:28;;;;;;;7.15;4.03;;;;;;;;;;4233395;33;20125;-68
2022/07/26 07:49:54;;;;;;;5.30;3.30;;;;;;;;;;4246677;33;20205;-70
2022/07/26 07:52:20;;;;;;;3.70;3.37;;;;;;;;;;4246671;33;20204;-69
2022/07/26 07:54:46;;;;;;;5.10;3.40;;;;;;;;;;4246354;33;20544;-69
2022/07/26 07:57:11;;;;;;;4.93;3.85;;;;;;;;;;4246493;33;20215;-71
2022/07/26 07:59:37;;;;;;;4.60;3.50;;;;;;;;;;4233405;33;20532;-71
2022/07/26 08:02:05;;;;;;;5.80;3.72;;;;;;;;;;4246680;33;20147;-68
2022/07/26 08:04:31;;;;;;;4.32;3.25;;;;;;;;;;4244662;33;20128;-67
2022/07/26 08:06:57;;;;;;;4.05;3.65;;;;;;;;;;4246348;33;20109;-70
2022/07/26 08:09:23;;;;;;;3.95;3.55;;;;;;;;;;4209960;33;20097;-69
2022/07/26 08:11:49;;;;;;;4.03;3.55;;;;;;;;;;4246300;33;20453;-70
2022/07/26 08:14:15;;;;;;;4.10;3.70;;;;;;;;;;4246391;33;20139;-70
2022/07/26 08:16:43;;;;;;;5.25;3.85;;;;;;;;;;4246122;33;20604;-69
2022/07/26 08:19:09;;;;;;;6.12;4.12;;;;;;;;;;4221744;33;20127;-70
2022/07/26 08:21:35;;;;;;;4.47;3.95;;;;;;;;;;4244845;33;20207;-69
2022/07/26 08:24:01;;;;;;;4.72;3.85;;;;;;;;;;4246210;33;20128;-70
2022/07/26 08:26:27;;;;;;;5.65;3.90;;;;;;;;;;4246194;33;20121;-70
2022/07/26 08:28:53;;;;;;;8.73;4.00;;;;;;;;;;4247563;33;20472;-69
2022/07/26 08:31:20;;;;;;;6.47;4.05;;;;;;;;;;4223522;33;20541;-69
2022/07/26 08:33:46;;;;;;;4.25;3.20;;;;;;;;;;4248024;33;20115;-69
2022/07/26 08:36:14;;;;;;;6.25;4.07;;;;;;;;;;4248162;33;20120;-69
2022/07/26 08:38:41;;;;;;;4.22;3.83;;;;;;;;;;4235077;33;20113;-69
2022/07/26 08:41:06;;;;;;;4.28;3.75;;;;;;;;;;4248188;33;20548;-69
2022/07/26 08:43:32;;;;;;;5.35;3.70;;;;;;;;;;4248163;33;20116;-69
2022/07/26 08:46:02;;;;;;;4.37;3.97;;;;;;;;;;4248219;33;20128;-69
2022/07/26 08:48:29;;;;;;;4.93;3.95;;;;;;;;;;4248022;33;20567;-69
2022/07/26 08:50:56;;;;;;;9.32;4.25;;;;;;;;;;4234831;33;20112;-69
2022/07/26 08:53:22;;;;;;;4.28;3.87;;;;;;;;;;4247567;33;20136;-69
2022/07/26 08:55:49;;;;;;;5.62;3.35;;;;;;;;;;4211731;33;20128;-69
2022/07/26 08:58:15;;;;;;;4.28;3.87;;;;;;;;;;4234996;33;20200;-69
2022/07/26 09:00:42;;;;;;;8.75;3.78;;;;;;;;;;4247986;33;20571;-70
2022/07/26 09:03:23;;;;;;;4.60;3.47;;;;;;;;;;4234940;33;20127;-70
2022/07/26 09:05:49;;;;;;;5.68;4.28;;;;;;;;;;4246281;33;20101;-71
2022/07/26 09:08:27;;;;;;;7.70;4.10;;;;;;;;;;4248292;33;20117;-70
2022/07/26 09:10:54;;;;;;;5.37;3.22;;;;;;;;;;4248077;33;20100;-68
2022/07/26 09:13:22;;;;;;;3.67;3.37;;;;;;;;;;4244909;33;20113;-69
2022/07/26 09:15:48;;;;;;;4.68;3.37;;;;;;;;;;4231675;33;20145;-68
2022/07/26 09:18:27;;;;;;;9.00;3.40;;;;;;;;;;4231763;33;20517;-67
2022/07/26 09:20:53;;;;;;;3.83;3.45;;;;;;;;;;4243523;33;20207;-68
2022/07/26 09:23:20;;;;;;;5.82;3.90;;;;;;;;;;4243570;33;20119;-69
2022/07/26 09:25:46;;;;;;;4.68;3.70;;;;;;;;;;4230343;33;20236;-68
2022/07/26 09:28:23;;;;;;;6.65;3.67;;;;;;;;;;4243287;33;20118;-67
2022/07/26 09:30:54;;;;;;;6.40;3.90;;;;;;;;;;4243424;33;20107;-70
2022/07/26 09:33:20;;;;;;;4.68;3.92;;;;;;;;;;4230094;33;20121;-68
2022/07/26 09:36:01;;;;;;;5.65;3.92;;;;;;;;;;4230171;33;20102;-68
2022/07/26 09:38:42;;;;;;;3.90;3.50;;;;;;;;;;4243040;33;20127;-68
2022/07/26 09:41:28;;;;;;;4.15;3.20;;;;;;;;;;4234023;33;20487;-68
2022/07/26 09:43:57;;;;;;;3.80;3.40;;;;;;;;;;4247701;33;20214;-67
2022/07/26 09:46:24;;;;;;;4.53;3.60;;;;;;;;;;4247570;33;20121;-67
2022/07/26 09:48:52;;;;;;;5.97;4.15;;;;;;;;;;4234713;33;20084;-68
2022/07/26 09:51:40;;;;;;;4.35;3.55;;;;;;;;;;4247590;33;20121;-68
2022/07/26 09:54:07;;;;;;;3.58;3.28;;;;;;;;;;4234405;33;20184;-69
2022/07/26 09:56:44;;;;;;;3.67;3.22;;;;;;;;;;4234774;33;20586;-69
2022/07/26 09:59:12;;;;;;;5.03;4.45;;;;;;;;;;4247377;33;20183;-69
2022/07/26 10:01:38;;;;;;;5.80;3.97;;;;;;;;;;4234901;33;20198;-70
2022/07/26 10:04:04;;;;;;;8.98;6.85;;;;;;;;;;4247740;33;20120;-69
2022/07/26 10:06:31;;;;;;;8.32;6.18;;;;;;;;;;4247654;33;20121;-70
2022/07/26 10:08:57;;;;;;;11.05;7.30;;;;;;;;;;4234405;33;20135;-70
2022/07/26 10:11:24;;;;;;;9.50;5.85;;;;;;;;;;4222866;33;20570;-69
2022/07/26 10:13:50;;;;;;;9.95;7.70;;;;;;;;;;4234250;33;20119;-70
2022/07/26 10:16:33;;;;;;;8.85;6.75;;;;;;;;;;4247376;33;20203;-68
2022/07/26 10:19:01;;;;;;;7.35;5.93;;;;;;;;;;4247394;33;20168;-68
2022/07/26 10:21:31;;;;;;;10.82;6.47;;;;;;;;;;4234422;33;20114;-69
2022/07/26 10:23:58;;;;;;;7.62;4.97;;;;;;;;;;4245719;33;20129;-68
2022/07/26 10:26:30;;;;;;;7.60;6.15;;;;;;;;;;4247302;33;20533;-69
2022/07/26 10:29:25;;;;;;;8.45;6.15;;;;;;;;;;4247235;33;20117;-67
2022/07/26 10:32:00;;;;;;;8.50;6.00;;;;;;;;;;4247148;33;20145;-70
2022/07/26 10:34:28;;;;;;;;;;;;;;;;;;4247628;33;20108;-68
2022/07/26 10:37:20;;;;;;;6.87;4.82;;;;;;;;;;4247085;33;19998;-67
2022/07/26 10:39:46;;;;;;;6.22;5.03;;;;;;;;;;4222288;33;20127;-67
2022/07/26 10:42:12;;;;;;;6.18;5.43;;;;;;;;;;4247037;33;20192;-67
2022/07/26 10:44:45;;;;;;;12.40;6.97;;;;;;;;;;4247218;33;20101;-67
2022/07/26 10:47:17;;;;;;;12.82;8.13;;;;;;;;;;4247130;33;20489;-71
2022/07/26 10:49:56;;;;;;;14.05;9.18;;;;;;;;;;4247054;33;20224;-70
2022/07/26 10:52:27;;;;;;;9.73;8.07;;;;;;;;;;4222027;33;20195;-70
2022/07/26 10:54:56;;;;;;;9.30;7.65;;;;;;;;;;4234013;33;20089;-70
2022/07/26 10:57:23;;;;;;;15.00;9.43;;;;;;;;;;4247097;33;20196;-69
2022/07/26 10:59:49;;;;;;;11.82;7.35;;;;;;;;;;4233856;33;20108;-69
2022/07/26 11:02:19;;;;;;;15.70;6.93;;;;;;;;;;4233832;33;20096;-69
2022/07/26 11:04:45;;;;;;;6.43;5.07;;;;;;;;;;4234196;33;20212;-70
2022/07/26 11:07:14;;;;;;;7.10;5.95;;;;;;;;;;4246901;33;20112;-70
2022/07/26 11:09:40;;;;;;;8.80;5.97;;;;;;;;;;4222550;33;20103;-69
2022/07/26 11:12:16;;;;;;;9.20;6.60;;;;;;;;;;4247043;33;20203;-70
2022/07/26 11:14:43;;;;;;;9.38;6.90;;;;;;;;;;4246956;33;20116;-69
2022/07/26 11:17:23;;;;;;;12.48;6.10;;;;;;;;;;4246826;33;20132;-69
2022/07/26 11:19:49;;;;;;;9.52;6.57;;;;;;;;;;4233765;33;20220;-68
2022/07/26 11:22:15;;;;;;;9.48;6.07;;;;;;;;;;4221880;33;20102;-68
2022/07/26 11:24:41;;;;;;;7.43;6.07;;;;;;;;;;4246638;33;20112;-68
2022/07/26 11:27:07;;;;;;;7.53;6.65;;;;;;;;;;4246713;33;20109;-67
2022/07/26 11:29:34;;;;;;;11.98;7.20;;;;;;;;;;4233726;33;20527;-68
2022/07/26 11:32:00;;;;;;;3.95;3.45;;;;;;;;;;4246788;33;20123;-66
2022/07/26 11:34:28;;;;;;;8.75;6.68;;;;;;;;;;4233199;33;20129;-68
2022/07/26 11:36:56;;;;;;;11.07;6.80;;;;;;;;;;4246594;33;20128;-68
2022/07/26 11:39:24;;;;;;;8.32;6.37;;;;;;;;;;4246677;33;20197;-68
2022/07/26 11:41:55;;;;;;;7.68;5.72;;;;;;;;;;4246712;33;20116;-69
2022/07/26 11:44:22;;;;;;;6.72;5.87;;;;;;;;;;4245630;33;20132;-68
2022/07/26 11:46:49;;;;;;;8.63;6.32;;;;;;;;;;4246703;33;20512;-69
2022/07/26 11:49:16;;;;;;;13.52;6.07;;;;;;;;;;4246656;33;20120;-69
2022/07/26 11:51:59;;;;;;;9.00;5.68;;;;;;;;;;4246550;33;20127;-71
2022/07/26 11:54:30;;;;;;;7.40;6.00;;;;;;;;;;4233735;33;20121;-69
2022/07/26 11:57:01;;;;;;;6.50;5.72;;;;;;;;;;4246543;33;20111;-69
2022/07/26 11:59:29;;;;;;;6.12;4.97;;;;;;;;;;4246610;33;20089;-68
2022/07/26 12:01:56;;;;;;;6.57;5.43;;;;;;;;;;4246386;33;20088;-69
2022/07/26 12:04:24;;;;;;;8.93;5.12;;;;;;;;;;4244921;33;20536;-69
2022/07/26 12:06:53;;;;;;;10.18;4.30;;;;;;;;;;4233197;33;20107;-69
2022/07/26 12:09:34;;;;;;;5.65;5.07;;;;;;;;;;4246184;33;20192;-68
2022/07/26 12:12:01;;;;;;;6.35;4.50;;;;;;;;;;4246554;33;20584;-69
2022/07/26 12:14:29;;;;;;;5.70;5.10;;;;;;;;;;4246369;33;20453;-69
2022/07/26 12:16:55;;;;;;;7.40;5.55;;;;;;;;;;4246541;33;20128;-69
2022/07/26 12:19:24;;;;;;;5.60;4.60;;;;;;;;;;4246430;33;20128;-69
2022/07/26 12:21:53;;;;;;;4.47;3.60;;;;;;;;;;4246493;33;20175;-69
2022/07/26 12:25:04;;;;;;;6.15;3.78;;;;;;;;;;4245025;33;20139;-67
2022/07/26 12:27:34;;;;;;;4.82;4.25;;;;;;;;;;4242761;33;20100;-73
2022/07/26 12:29:59;;;;;;;5.45;4.05;;;;;;;;;;4233034;33;20473;-69
2022/07/26 12:32:33;;;;;;;4.70;3.97;;;;;;;;;;4245997;33;20199;-71
2022/07/26 12:35:00;;;;;;;4.70;3.87;;;;;;;;;;4221038;33;20505;-72
2022/07/26 12:37:31;;;;;;;7.18;5.05;;;;;;;;;;4246190;33;20167;-72
2022/07/26 12:40:11;;;;;;;7.30;4.60;;;;;;;;;;4246043;33;20527;-71
2022/07/26 12:42:42;;;;;;;7.55;4.87;;;;;;;;;;4246303;33;20088;-67
2022/07/26 12:45:10;;;;;;;8.85;4.85;;;;;;;;;;4246206;33;20119;-67
2022/07/26 12:47:38;;;;;;;8.95;4.70;;;;;;;;;;4232898;33;20200;-68
2022/07/26 12:50:06;;;;;;;5.62;4.68;;;;;;;;;;4244403;33;20520;-69
2022/07/26 12:52:32;;;;;;;6.68;4.32;;;;;;;;;;4221166;33;20188;-73
2022/07/26 12:54:59;;;;;;;5.85;4.78;;;;;;;;;;4246070;33;20101;-72
2022/07/26 12:57:26;;;;;;;5.65;4.40;;;;;;;;;;4245600;33;20437;-69
2022/07/26 12:59:52;;;;;;;5.43;4.47;;;;;;;;;;4245777;33;20128;-69
2022/07/26 13:02:19;;;;;;;5.55;4.37;;;;;;;;;;4232428;33;20120;-68
2022/07/26 13:04:46;;;;;;;8.43;4.93;;;;;;;;;;4245592;33;20624;-69
2022/07/26 13:07:12;;;;;;;9.60;4.95;;;;;;;;;;4245723;33;20500;-70
2022/07/26 13:09:38;;;;;;;5.20;4.70;;;;;;;;;;4245892;33;20115;-69
2022/07/26 13:12:05;;;;;;;3.30;2.83;;;;;;;;;;4245626;33;20202;-69
2022/07/26 13:14:35;;;;;;;5.53;4.97;;;;;;;;;;4233505;33;20437;-70
2022/07/26 13:17:02;;;;;;;9.75;5.28;;;;;;;;;;4223128;33;20139;-69
2022/07/26 13:19:28;;;;;;;5.65;4.70;;;;;;;;;;4234874;33;20105;-68
2022/07/26 13:21:58;;;;;;;8.73;5.25;;;;;;;;;;4234822;33;20096;-70
2022/07/26 13:24:25;;;;;;;5.85;4.90;;;;;;;;;;4248170;33;20109;-70
2022/07/26 13:26:51;;;;;;;6.47;4.97;;;;;;;;;;4247796;33;20121;-70
2022/07/26 13:29:18;;;;;;;7.87;4.97;;;;;;;;;;4247646;33;20128;-70
2022/07/26 13:31:44;;;;;;;8.73;4.82;;;;;;;;;;4247914;33;20128;-71
2022/07/26 13:34:10;;;;;;;13.90;5.70;;;;;;;;;;4247753;33;20139;-68
2022/07/26 13:36:36;;;;;;;5.95;5.10;;;;;;;;;;4234479;33;20528;-70
2022/07/26 13:39:03;;;;;;;6.20;5.25;;;;;;;;;;4245540;33;20492;-66
2022/07/26 13:41:33;;;;;;;8.50;5.07;;;;;;;;;;4225313;33;20184;-69
2022/07/26 13:44:00;;;;;;;6.68;5.47;;;;;;;;;;4222991;33;20107;-70
2022/07/26 13:46:28;;;;;;;8.10;4.93;;;;;;;;;;4247712;33;20148;-68
2022/07/26 13:48:57;;;;;;;4.47;4.07;;;;;;;;;;4234858;33;20201;-70
2022/07/26 13:51:55;;;;;;;4.43;4.03;;;;;;;;;;4235028;33;20101;-66
2022/07/26 13:54:12;;;;;;;4.05;3.50;;;;;;;;;;4236823;33;20246;-62
2022/07/26 13:56:38;;;;;;;3.97;3.58;;;;;;;;;;4247614;33;20136;-62
2022/07/26 13:59:04;;;;;;;6.30;4.30;;;;;;;;;;4247478;33;20105;-65
2022/07/26 14:01:31;;;;;;;7.20;4.00;;;;;;;;;;4247259;33;20123;-65
2022/07/26 14:03:57;;;;;;;6.40;4.03;;;;;;;;;;4234430;33;20109;-65
2022/07/26 14:06:25;;;;;;;4.18;3.78;;;;;;;;;;4247068;33;20437;-62
2022/07/26 14:08:51;;;;;;;5.12;3.80;;;;;;;;;;4247009;33;20524;-62
2022/07/26 14:11:17;;;;;;;5.65;3.87;;;;;;;;;;4234219;33;20113;-64
2022/07/26 14:13:43;;;;;;;5.15;3.85;;;;;;;;;;4247436;33;20117;-64
2022/07/26 14:16:09;;;;;;;4.03;3.12;;;;;;;;;;4234086;33;20639;-65
2022/07/26 14:18:35;;;;;;;3.78;3.20;;;;;;;;;;4247310;33;20211;-62
2022/07/26 14:21:02;;;;;;;5.68;3.80;;;;;;;;;;4234475;33;20127;-63
2022/07/26 14:23:28;;;;;;;6.97;3.70;;;;;;;;;;4247268;33;20120;-63
2022/07/26 14:25:54;;;;;;;4.07;3.62;;;;;;;;;;4246764;33;20096;-66
2022/07/26 14:28:20;;;;;;;4.62;4.05;;;;;;;;;;4234058;33;20648;-65
2022/07/26 14:30:46;;;;;;;8.07;3.65;;;;;;;;;;4234332;33;20576;-62
2022/07/26 14:33:13;;;;;;;4.72;3.85;;;;;;;;;;4233811;33;20096;-66
2022/07/26 14:35:40;;;;;;;6.03;3.97;;;;;;;;;;4247068;33;20508;-62
2022/07/26 14:38:07;;;;;;;10.88;4.93;;;;;;;;;;4247060;33;20119;-61
2022/07/26 14:40:33;;;;;;;6.25;3.95;;;;;;;;;;4247441;33;20116;-63
2022/07/26 14:43:00;;;;;;;4.80;3.60;;;;;;;;;;4234173;33;20124;-61
2022/07/26 14:45:26;;;;;;;5.22;4.15;;;;;;;;;;4247083;33;20446;-67
2022/07/26 14:47:52;;;;;;;5.05;4.47;;;;;;;;;;4246974;33;20516;-68
2022/07/26 14:50:18;;;;;;;4.35;3.80;;;;;;;;;;4233683;33;20104;-60
2022/07/26 14:52:46;;;;;;;4.57;3.40;;;;;;;;;;4244781;33;20108;-61
2022/07/26 14:55:13;;;;;;;3.70;3.40;;;;;;;;;;4245542;33;20120;-66
2022/07/26 14:57:40;;;;;;;5.47;3.83;;;;;;;;;;4232689;33;20088;-61
2022/07/26 15:00:08;;;;;;;8.55;3.90;;;;;;;;;;4246868;33;20112;-58
2022/07/26 15:02:37;;;;;;;5.20;3.42;;;;;;;;;;4246809;33;20115;-62
2022/07/26 15:05:03;;;;;;;4.05;3.65;;;;;;;;;;4246761;33;20181;-64
2022/07/26 15:07:29;;;;;;;4.53;3.62;;;;;;;;;;4246878;33;20116;-62